Knight Air

Knight Air knights of the virtual airways



 METAR AND TAF INFORMATION
METAR FOR ENKB
ADDS - METARS form results

(1556 UTC 18 October 2019)
Data provider http://aviationweather.gov/metar/data/
 
METAR text: ENKB 181520Z 00000KT CAVOK 10/04 Q1003 RMK WIND 745FT 33003KT
Conditions at: ENKB (KRISTIANSUND/KVE, NO) observed 1520 UTC 18 October 2019
Temperature: 10.0°C (50°F)
Dewpoint: 4.0°C (39°F) [RH = 66%]
Pressure (altimeter): 29.62 inches Hg (1003.0 mb)
Winds: calm
Visibility: 6 or more miles (10+ km)
Ceiling: ceiling and visibility are OK
Clouds: unknown
Weather: no significant weather observed at this time

Forecast for: ENKB (KRISTIANSUND/KVE, NO)
Text: TAF ENKB 181400Z 1815/1821 VRB05KT CAVOK
Forecast period: 1500 to 2100 UTC 18 October 2019
Forecast type: FROM: standard forecast or significant change
Winds: variable direction winds at 6 MPH (5 knots; 2.6 m/s)
Visibility: 6 or more miles 10+ km)
Ceiling: unknown
Clouds: missing
Weather: NSW  (no significant weather)

 AIRPORT MAP

 RUNWAY INFORMATION
Runway 07 Runway length 6037 ft Runway width 148 ft
Runway elevation 179 ft Runway displaced threshold 197 ft Runway heading 72
Runway 25 Runway length 6037 ft Runway width 148 ft
Runway elevation 196 ft Runway displaced threshold 263 ft Runway heading 252

 AIRPORT FREQUENCIES
Type TWR Name TWR Frequency 118.3 MHZ

 AIRPORT NEAR NAVIGATION AIDS
Type VOR-DME Name Kvernberget Frequency 113800 KHZ